Time;durP1;ratioP1;P1;durP2;ratioP2;P2;SDS_P1;SDS_P2;PMS_P1;PMS_P2;Temp;Humidity;BMP_temperature;BMP_pressure;BME280_temperature;BME280_humidity;BME280_pressure;Samples;Min_cycle;Max_cycle;Signal;HPM_P1;HPM_P2
2022/07/15 00:00:24;;;;;;;8.70;3.70;;;;;;;29.72;33.83;101024.41;4948241;29;20094;-82
2022/07/15 00:02:51;;;;;;;5.15;4.10;;;;;;;29.73;33.44;101014.28;4957135;28;20464;-83
2022/07/15 00:05:17;;;;;;;4.88;3.78;;;;;;;29.60;33.49;100978.00;4950976;28;20149;-82
2022/07/15 00:07:44;;;;;;;6.53;3.85;;;;;;;29.70;33.39;100990.19;4950552;28;20144;-82
2022/07/15 00:10:15;;;;;;;6.05;3.90;;;;;;;29.81;33.72;101014.69;4953876;28;20101;-83
2022/07/15 00:12:44;;;;;;;6.40;3.75;;;;;;;29.74;33.92;100999.53;4953582;28;20050;-84
2022/07/15 00:15:11;;;;;;;8.73;3.50;;;;;;;29.66;33.04;100972.59;4951059;28;20055;-82
2022/07/15 00:17:39;;;;;;;7.03;3.47;;;;;;;29.18;33.28;100902.00;4967927;28;20051;-82
2022/07/15 00:20:09;;;;;;;6.25;3.85;;;;;;;29.48;33.60;100955.41;4967846;28;20102;-83
2022/07/15 00:22:37;;;;;;;5.53;4.30;;;;;;;29.72;33.50;101004.44;4950997;28;20482;-83
2022/07/15 00:25:05;;;;;;;9.95;4.25;;;;;;;29.52;33.94;100975.72;4967505;28;20109;-83
2022/07/15 00:27:31;;;;;;;5.65;4.63;;;;;;;29.63;33.80;101008.66;4950448;28;20110;-84
2022/07/15 00:29:58;;;;;;;6.43;3.95;;;;;;;29.41;33.72;100965.72;4950240;28;20494;-84
2022/07/15 00:32:25;;;;;;;10.35;4.22;;;;;;;29.17;33.66;100927.66;4950652;28;20046;-84
2022/07/15 00:34:51;;;;;;;7.32;4.15;;;;;;;29.27;33.56;100932.44;4950025;28;20117;-83
2022/07/15 00:37:18;;;;;;;5.75;3.85;;;;;;;29.60;33.41;100990.84;4950440;28;20113;-82
2022/07/15 00:39:44;;;;;;;4.88;3.83;;;;;;;29.60;33.38;100975.25;4958961;28;20510;-83
2022/07/15 00:42:43;;;;;;;4.18;3.88;;;;;;;28.40;33.44;100789.09;4969385;28;20050;-84
2022/07/15 00:45:00;;;;;;;5.78;3.70;;;;;;;29.54;33.50;100964.50;4986202;28;20054;-83
2022/07/15 00:47:28;;;;;;;5.35;4.15;;;;;;;29.39;33.68;100941.34;4969315;28;20073;-82
2022/07/15 00:49:54;;;;;;;4.85;4.05;;;;;;;29.52;33.64;100959.31;4969577;28;20151;-83
2022/07/15 00:52:22;;;;;;;10.40;3.53;;;;;;;29.42;33.43;100940.03;4969249;28;20101;-83
2022/07/15 00:54:51;;;;;;;4.78;4.22;;;;;;;29.51;33.64;100954.91;4969097;28;20112;-80
2022/07/15 00:57:17;;;;;;;4.68;4.00;;;;;;;29.33;33.47;100933.34;4986280;28;20506;-82
2022/07/15 00:59:47;;;;;;;3.90;3.58;;;;;;;29.50;33.52;100958.72;4968985;28;20074;-82
2022/07/15 01:02:14;;;;;;;5.35;3.60;;;;;;;29.42;33.57;100945.50;4987816;28;20065;-83
2022/07/15 01:04:40;;;;;;;3.90;3.60;;;;;;;29.38;33.39;100938.88;4972752;28;20078;-83
2022/07/15 01:07:07;;;;;;;4.43;4.03;;;;;;;29.51;33.52;100954.91;4991059;28;20058;-82
2022/07/15 01:09:34;;;;;;;4.82;4.00;;;;;;;29.46;33.46;100946.63;4976340;28;20395;-83
2022/07/15 01:12:01;;;;;;;4.43;4.03;;;;;;;29.49;33.42;100950.75;4972780;28;20077;-83
2022/07/15 01:14:27;;;;;;;3.88;3.58;;;;;;;29.30;33.35;100921.00;4972751;28;20046;-83
2022/07/15 01:16:54;;;;;;;7.07;4.10;;;;;;;29.46;33.35;100948.53;4972567;28;20085;-82
2022/07/15 01:19:21;;;;;;;7.15;4.22;;;;;;;29.50;33.34;100956.00;4972114;28;20474;-83
2022/07/15 01:21:48;;;;;;;10.75;4.35;;;;;;;29.32;33.19;100929.78;4990065;28;20089;-84
2022/07/15 01:24:14;;;;;;;5.85;3.95;;;;;;;29.46;33.27;100945.81;4972458;28;20053;-84
2022/07/15 01:26:41;;;;;;;5.97;4.15;;;;;;;29.09;33.44;100887.09;4989852;28;20498;-83
2022/07/15 01:29:07;;;;;;;4.40;3.97;;;;;;;28.98;33.53;100869.72;4989630;28;20114;-83
2022/07/15 01:31:34;;;;;;;11.85;4.20;;;;;;;29.39;33.29;100935.88;4972402;28;20589;-83
2022/07/15 01:34:01;;;;;;;6.40;3.90;;;;;;;29.37;33.43;100926.28;4972165;28;20445;-82
2022/07/15 01:36:27;;;;;;;5.28;4.10;;;;;;;29.42;33.54;100940.03;4972131;28;20453;-82
2022/07/15 01:38:54;;;;;;;4.30;4.00;;;;;;;29.30;33.28;100904.59;4970072;28;20051;-83
2022/07/15 01:41:40;;;;;;;4.38;3.90;;;;;;;29.39;33.17;100932.31;4969957;28;20402;-82
2022/07/15 01:44:07;;;;;;;4.85;3.88;;;;;;;29.33;33.08;100925.16;4952807;28;20137;-83
2022/07/15 01:46:34;;;;;;;4.30;3.85;;;;;;;29.34;33.26;100927.59;4952367;28;20629;-83
2022/07/15 01:51:46;;;;;;;6.32;4.40;;;;;;;29.01;33.47;100887.50;4969593;28;20526;-81
2022/07/15 01:54:12;;;;;;;4.32;3.72;;;;;;;28.66;33.34;100827.72;4966564;28;20250;-83
2022/07/15 01:56:39;;;;;;;8.52;4.07;;;;;;;29.23;33.32;100919.56;4971733;28;20050;-84
2022/07/15 01:59:06;;;;;;;5.07;3.42;;;;;;;29.07;33.55;100905.66;4988999;28;20089;-83
2022/07/15 02:01:32;;;;;;;4.25;3.85;;;;;;;28.84;33.75;100870.34;4971559;28;20062;-83
2022/07/15 02:03:59;;;;;;;4.38;3.75;;;;;;;29.12;33.62;100913.91;4968186;28;20059;-85
2022/07/15 02:06:26;;;;;;;5.50;4.05;;;;;;;29.09;33.45;100908.97;4968889;28;20117;-82
2022/07/15 02:08:53;;;;;;;4.35;3.75;;;;;;;28.88;33.32;100876.94;4971843;28;20506;-83
2022/07/15 02:11:20;;;;;;;3.88;3.60;;;;;;;28.88;33.51;100879.66;4970731;28;20059;-82
2022/07/15 02:13:46;;;;;;;5.05;4.18;;;;;;;28.84;33.27;100864.88;4968310;28;20059;-83
2022/07/15 02:16:13;;;;;;;4.30;4.00;;;;;;;28.77;33.10;100863.13;4968381;28;20097;-84
2022/07/15 02:18:40;;;;;;;4.28;3.92;;;;;;;29.05;33.34;100912.41;4969432;28;20058;-82
2022/07/15 02:21:07;;;;;;;6.22;3.70;;;;;;;28.98;32.99;100901.66;4968243;28;20050;-83
2022/07/15 02:23:34;;;;;;;5.78;3.40;;;;;;;28.81;33.06;100863.44;4968011;28;20050;-82
2022/07/15 02:26:00;;;;;;;3.47;3.17;;;;;;;29.07;32.87;100910.28;4968017;28;20121;-82
2022/07/15 02:28:27;;;;;;;3.40;3.10;;;;;;;28.50;32.92;100808.38;4969227;28;20055;-84
2022/07/15 02:30:54;;;;;;;10.50;4.80;;;;;;;28.00;32.92;100731.97;4968363;28;20082;-83
2022/07/15 02:33:20;;;;;;;4.68;3.83;;;;;;;29.06;32.38;100905.88;4969365;28;20054;-83
2022/07/15 02:35:47;;;;;;;5.57;3.97;;;;;;;29.02;32.54;100902.81;4973371;28;20062;-83
2022/07/15 02:38:14;;;;;;;6.38;4.03;;;;;;;29.01;32.51;100886.66;4969694;28;20435;-82
2022/07/15 02:40:41;;;;;;;3.67;3.38;;;;;;;29.06;32.79;100895.81;4951032;28;20051;-84
2022/07/15 02:43:10;;;;;;;3.97;3.58;;;;;;;28.96;32.89;100876.50;4964035;28;20526;-82
2022/07/15 02:45:37;;;;;;;8.38;3.70;;;;;;;28.93;32.43;100866.91;4949223;28;20518;-83
2022/07/15 02:48:05;;;;;;;7.07;4.10;;;;;;;28.52;32.38;100797.19;4948517;29;20059;-83
2022/07/15 02:50:32;;;;;;;4.40;3.97;;;;;;;29.00;32.88;100883.09;4948380;29;20455;-83
2022/07/15 02:53:00;;;;;;;4.20;3.67;;;;;;;28.28;32.80;100781.00;4952564;28;20054;-83
2022/07/15 02:55:27;;;;;;;4.10;3.70;;;;;;;28.81;32.95;100871.63;4967609;28;20157;-82
2022/07/15 02:57:54;;;;;;;5.93;4.60;;;;;;;28.28;33.11;100789.19;4967214;28;20073;-83
2022/07/15 03:00:20;;;;;;;4.88;3.80;;;;;;;28.88;32.86;100882.41;4967140;28;20400;-83
2022/07/15 03:02:48;;;;;;;4.43;4.03;;;;;;;28.87;32.78;100886.22;4967356;28;20054;-82
2022/07/15 03:05:15;;;;;;;4.75;3.40;;;;;;;28.87;32.78;100886.22;4967382;28;20118;-83
2022/07/15 03:07:42;;;;;;;4.88;3.20;;;;;;;28.57;32.86;100849.19;4967483;28;20470;-82
2022/07/15 03:10:09;;;;;;;5.50;3.78;;;;;;;28.75;32.89;100889.03;4967439;28;20047;-83
2022/07/15 03:12:37;;;;;;;6.43;4.03;;;;;;;28.73;33.25;100891.19;4967429;28;20109;-83
2022/07/15 03:15:05;;;;;;;4.60;3.50;;;;;;;28.63;32.84;100878.22;4968397;28;20051;-84
2022/07/15 03:17:31;;;;;;;5.35;3.60;;;;;;;28.65;33.06;100878.78;4967657;28;20062;-82
2022/07/15 03:19:58;;;;;;;5.07;4.10;;;;;;;28.69;33.19;100903.69;4966776;28;20451;-83
2022/07/15 03:22:27;;;;;;;4.15;3.85;;;;;;;27.40;32.79;100687.88;4968125;28;20109;-82
2022/07/15 03:24:54;;;;;;;5.10;3.92;;;;;;;28.33;32.82;100845.78;4966347;28;20074;-83
2022/07/15 03:27:21;;;;;;;3.75;3.35;;;;;;;28.66;32.87;100907.75;4967857;28;20054;-83
2022/07/15 03:29:49;;;;;;;7.80;3.40;;;;;;;28.53;32.87;100888.97;4966214;28;20490;-82
2022/07/15 03:32:15;;;;;;;4.68;4.28;;;;;;;28.61;32.98;100904.94;4966483;28;20043;-82
2022/07/15 03:34:45;;;;;;;3.65;3.10;;;;;;;28.60;32.88;100914.22;4966672;28;20078;-83
2022/07/15 03:37:11;;;;;;;7.00;3.60;;;;;;;28.51;33.11;100922.00;4966610;28;20078;-82
2022/07/15 03:39:38;;;;;;;4.03;3.72;;;;;;;28.54;33.08;100913.28;4958407;28;20086;-80
2022/07/15 03:42:05;;;;;;;4.93;4.43;;;;;;;28.46;33.00;100900.06;4946873;29;20470;-83
2022/07/15 03:44:32;;;;;;;4.82;3.35;;;;;;;28.45;33.25;100901.16;4947119;29;20055;-82
2022/07/15 03:46:59;;;;;;;3.88;3.22;;;;;;;28.38;33.24;100900.47;4947447;29;20142;-83
2022/07/15 03:49:25;;;;;;;4.40;3.60;;;;;;;27.96;33.19;100834.50;4947072;29;20129;-82
2022/07/15 03:51:52;;;;;;;5.32;4.38;;;;;;;28.39;33.07;100904.81;4947932;28;20062;-82
2022/07/15 03:54:19;;;;;;;4.53;4.13;;;;;;;28.16;33.26;100873.06;4962066;28;20380;-82
2022/07/15 03:56:47;;;;;;;5.65;4.10;;;;;;;28.31;33.20;100908.81;4966408;28;20059;-80
2022/07/15 03:59:15;;;;;;;5.03;3.83;;;;;;;28.34;33.46;100907.47;4966753;28;20466;-82
2022/07/15 04:01:41;;;;;;;7.57;4.43;;;;;;;28.30;34.54;100923.53;4966592;28;20058;-82
2022/07/15 04:04:08;;;;;;;5.50;4.00;;;;;;;28.27;34.71;100929.47;4985968;28;20058;-82
2022/07/15 04:06:35;;;;;;;7.75;5.00;;;;;;;28.03;35.09;100917.03;4971069;28;20592;-83
2022/07/15 04:09:02;;;;;;;7.35;3.70;;;;;;;28.08;35.61;100925.31;4996637;28;20047;-83
2022/07/15 04:11:29;;;;;;;4.43;3.88;;;;;;;27.48;35.74;100856.50;4974496;28;20402;-81
2022/07/15 04:13:56;;;;;;;5.70;3.85;;;;;;;27.85;36.41;100916.16;4969582;28;20050;-82
2022/07/15 04:16:22;;;;;;;6.97;4.55;;;;;;;27.73;36.53;100901.72;4969662;28;20054;-84
2022/07/15 04:18:51;;;;;;;6.05;4.18;;;;;;;27.78;36.88;100934.53;4969329;28;20051;-82
2022/07/15 04:21:18;;;;;;;8.05;4.82;;;;;;;27.72;37.08;100954.63;4969819;28;20100;-82
2022/07/15 04:23:46;;;;;;;6.85;4.35;;;;;;;27.74;36.51;100944.25;4969622;28;20050;-82
2022/07/15 04:26:13;;;;;;;5.30;4.43;;;;;;;27.76;36.16;100961.22;4969437;28;20062;-82
2022/07/15 04:28:40;;;;;;;4.97;3.83;;;;;;;27.69;35.67;100935.97;4969731;28;20050;-82
2022/07/15 04:31:06;;;;;;;6.22;3.40;;;;;;;27.24;35.49;100872.09;4968542;28;20562;-83
2022/07/15 04:33:33;;;;;;;8.10;4.78;;;;;;;27.73;35.35;100953.53;4950881;28;20446;-82
2022/07/15 04:35:59;;;;;;;7.90;4.22;;;;;;;27.76;35.73;100960.41;4929390;29;20079;-83
2022/07/15 04:38:26;;;;;;;4.68;3.53;;;;;;;27.79;36.00;100952.53;4932969;28;20051;-82
2022/07/15 04:40:53;;;;;;;9.18;3.97;;;;;;;27.60;35.55;100923.78;4968640;28;20065;-83
2022/07/15 04:43:20;;;;;;;9.35;4.55;;;;;;;27.80;35.82;100945.22;4988536;28;20058;-82
2022/07/15 04:45:47;;;;;;;4.30;3.55;;;;;;;27.78;35.12;100947.34;4988523;28;20050;-82
2022/07/15 04:50:59;;;;;;;6.32;3.97;;;;;;;26.85;34.44;100803.69;4969354;28;20533;-82
2022/07/15 04:53:26;;;;;;;4.97;3.63;;;;;;;27.88;34.25;100942.13;4949450;28;20116;-83
2022/07/15 04:55:53;;;;;;;5.68;3.83;;;;;;;28.05;33.93;100953.09;4952405;28;20055;-83
2022/07/15 04:58:19;;;;;;;3.35;3.15;;;;;;;28.00;33.96;100955.72;4948704;28;20046;-82
2022/07/15 05:00:47;;;;;;;3.90;3.60;;;;;;;27.49;33.93;100857.34;4947890;29;20533;-84
2022/07/15 05:03:14;;;;;;;4.38;3.97;;;;;;;28.13;34.00;100955.41;4934262;28;20074;-84
2022/07/15 05:05:41;;;;;;;4.13;3.72;;;;;;;28.14;34.41;100951.63;4951714;28;20069;-82
2022/07/15 05:08:08;;;;;;;5.75;4.30;;;;;;;28.08;34.70;100942.50;4951808;28;20074;-82
2022/07/15 05:10:35;;;;;;;4.38;4.03;;;;;;;28.00;33.98;100909.34;4951645;28;20086;-84
2022/07/15 05:13:03;;;;;;;5.00;3.80;;;;;;;27.99;33.98;100913.13;4968824;28;20050;-82
2022/07/15 05:15:30;;;;;;;6.60;3.80;;;;;;;28.16;34.25;100930.38;4950970;28;20083;-83
2022/07/15 05:17:57;;;;;;;5.35;4.65;;;;;;;28.14;34.61;100940.72;4953773;28;20055;-84
2022/07/15 05:20:24;;;;;;;6.07;4.65;;;;;;;28.14;34.96;100940.72;4961159;28;20434;-82
2022/07/15 05:22:51;;;;;;;9.07;4.50;;;;;;;28.33;35.17;100960.44;4979629;28;20109;-84
2022/07/15 05:25:17;;;;;;;6.60;4.32;;;;;;;28.22;35.79;100931.28;4972678;28;20090;-84
2022/07/15 05:27:44;;;;;;;7.32;4.90;;;;;;;28.54;35.46;100969.81;4991559;28;20030;-84
2022/07/15 05:30:16;;;;;;;6.63;5.47;;;;;;;28.68;35.49;100968.41;4962063;28;20519;-83
2022/07/15 05:32:43;;;;;;;6.80;6.00;;;;;;;28.65;35.66;100968.94;4951756;28;20047;-83
2022/07/15 05:35:14;;;;;;;8.82;5.55;;;;;;;28.32;35.94;100918.63;4969260;28;20462;-83
2022/07/15 05:37:42;;;;;;;5.97;5.10;;;;;;;28.58;35.89;100946.41;4950670;28;20050;-84
2022/07/15 05:40:09;;;;;;;10.80;5.20;;;;;;;28.59;35.91;100936.31;4963709;28;20058;-83
2022/07/15 05:42:38;;;;;;;6.05;4.90;;;;;;;28.69;35.97;100959.16;4985547;28;20051;-82
2022/07/15 05:45:05;;;;;;;5.78;4.63;;;;;;;28.65;35.65;100925.22;4986756;28;20054;-83
2022/07/15 05:47:32;;;;;;;7.50;4.93;;;;;;;28.96;35.33;100974.91;4969750;28;20319;-82
2022/07/15 05:49:59;;;;;;;7.22;5.70;;;;;;;28.69;36.12;100940.06;4988096;28;20167;-83
2022/07/15 05:52:26;;;;;;;7.15;4.82;;;;;;;29.13;34.65;100964.78;4970638;28;20510;-84
2022/07/15 05:54:53;;;;;;;4.43;3.92;;;;;;;29.23;33.90;100968.75;4931751;29;20065;-83
2022/07/15 05:57:20;;;;;;;11.13;4.53;;;;;;;29.03;34.01;100936.44;4931910;29;20443;-83
2022/07/15 05:59:46;;;;;;;3.88;3.58;;;;;;;29.33;33.11;100957.94;4948449;29;20055;-83
2022/07/15 06:02:13;;;;;;;7.63;4.45;;;;;;;29.21;33.49;100966.25;4931999;29;20122;-83
2022/07/15 06:04:41;;;;;;;4.95;4.00;;;;;;;29.04;34.29;100938.94;4948968;29;20122;-82
2022/07/15 06:07:08;;;;;;;5.10;4.07;;;;;;;29.16;33.12;100949.78;4941483;28;20050;-83
2022/07/15 06:09:35;;;;;;;5.25;4.60;;;;;;;29.16;32.79;100930.66;4953221;28;20479;-84
2022/07/15 06:12:02;;;;;;;7.30;4.28;;;;;;;29.44;33.04;100976.13;4948347;28;20042;-83
2022/07/15 06:14:29;;;;;;;6.50;3.90;;;;;;;29.33;31.98;100933.34;4931733;28;20051;-83
2022/07/15 06:17:03;;;;;;;4.65;3.63;;;;;;;29.32;32.53;100935.25;4932485;29;20058;-83
2022/07/15 06:19:30;;;;;;;4.72;3.45;;;;;;;29.54;32.11;100953.56;4931745;29;20067;-83
2022/07/15 06:21:58;;;;;;;6.90;3.45;;;;;;;29.68;31.91;100984.13;4933353;28;20051;-83
2022/07/15 06:24:25;;;;;;;4.03;3.63;;;;;;;29.69;32.35;100972.94;4961621;28;20466;-84
2022/07/15 06:26:52;;;;;;;6.88;4.25;;;;;;;29.77;32.47;100977.13;4967930;28;20368;-83
2022/07/15 06:29:19;;;;;;;4.32;3.92;;;;;;;29.85;32.34;100976.69;4950767;28;20143;-83
2022/07/15 06:31:46;;;;;;;6.30;4.20;;;;;;;29.78;32.09;100941.31;4941739;29;20051;-85
2022/07/15 06:34:12;;;;;;;5.95;3.50;;;;;;;29.57;31.88;100888.25;4931681;29;20066;-84
2022/07/15 06:36:39;;;;;;;4.38;3.78;;;;;;;29.24;31.66;100814.56;4948414;28;20420;-85
2022/07/15 06:39:06;;;;;;;6.15;4.18;;;;;;;30.24;31.81;100980.13;4950234;28;20474;-84
2022/07/15 06:41:33;;;;;;;16.23;4.13;;;;;;;29.84;32.34;100917.56;4944025;29;20051;-84
2022/07/15 06:44:01;;;;;;;5.05;4.30;;;;;;;29.65;31.98;100867.00;4940866;28;20073;-85
2022/07/15 06:46:28;;;;;;;4.63;4.22;;;;;;;30.37;32.21;100978.91;4930567;28;20106;-83
2022/07/15 06:48:54;;;;;;;4.95;4.43;;;;;;;30.43;32.01;100988.00;4930350;28;20447;-84
2022/07/15 06:51:22;;;;;;;4.93;4.30;;;;;;;30.32;32.69;100962.44;4930519;28;20051;-83
2022/07/15 06:53:48;;;;;;;6.70;4.43;;;;;;;30.45;31.80;100974.88;4952272;28;20042;-83
2022/07/15 06:56:15;;;;;;;4.88;4.47;;;;;;;30.52;31.65;100955.50;4961862;28;20054;-84
2022/07/15 06:58:42;;;;;;;6.93;4.47;;;;;;;30.71;31.59;100984.16;4949574;28;20047;-82
2022/07/15 07:01:10;;;;;;;7.18;4.63;;;;;;;30.68;32.23;100970.94;4949354;28;20329;-84
2022/07/15 07:03:38;;;;;;;6.00;4.55;;;;;;;30.63;32.15;100954.47;4949015;28;20109;-82
2022/07/15 07:06:24;;;;;;;4.53;3.95;;;;;;;30.87;31.33;100972.22;4951295;28;20090;-84
2022/07/15 07:08:52;;;;;;;5.30;4.57;;;;;;;30.72;31.69;100958.38;4948282;28;20466;-83
2022/07/15 07:11:19;;;;;;;5.55;4.40;;;;;;;30.23;31.17;100857.16;4949436;28;20278;-82
2022/07/15 07:13:48;;;;;;;9.10;4.68;;;;;;;30.63;30.68;100894.19;4949664;28;20051;-81
2022/07/15 07:16:15;;;;;;;5.70;4.55;;;;;;;31.04;31.29;100971.25;4949588;28;20058;-85
2022/07/15 07:18:45;;;;;;;8.10;4.90;;;;;;;31.00;31.53;100965.47;4949107;28;20436;-84
2022/07/15 07:21:13;;;;;;;8.50;5.28;;;;;;;30.69;31.73;100919.72;4948628;28;20047;-82
2022/07/15 07:23:40;;;;;;;4.95;4.50;;;;;;;30.92;31.26;100941.28;4949573;28;20055;-83
2022/07/15 07:26:08;;;;;;;11.65;4.57;;;;;;;31.16;31.38;100966.38;4949151;28;20133;-83
2022/07/15 07:28:36;;;;;;;7.43;4.90;;;;;;;31.12;31.91;100972.66;4949313;28;20050;-84
2022/07/15 07:31:03;;;;;;;7.97;5.20;;;;;;;31.17;31.92;100964.47;4968109;28;20104;-83
2022/07/15 07:33:29;;;;;;;5.90;5.32;;;;;;;31.27;31.49;100970.03;4949814;28;20525;-83
2022/07/15 07:35:56;;;;;;;7.50;4.68;;;;;;;31.36;31.70;100964.84;4949926;28;20128;-82
2022/07/15 07:38:23;;;;;;;6.13;5.50;;;;;;;31.54;31.32;100975.41;4948910;28;20061;-83
2022/07/15 07:40:50;;;;;;;7.20;4.95;;;;;;;31.56;31.35;100980.63;4966921;28;20061;-82
2022/07/15 07:43:18;;;;;;;7.45;4.35;;;;;;;31.70;30.59;100973.53;4985671;28;20490;-83
2022/07/15 07:45:46;;;;;;;5.53;5.03;;;;;;;31.14;31.07;100882.75;4968119;28;20498;-84
2022/07/15 07:48:13;;;;;;;7.57;5.47;;;;;;;31.67;31.37;100974.91;4968714;28;20428;-83
2022/07/15 07:50:40;;;;;;;5.82;4.80;;;;;;;30.85;31.47;100834.66;4968169;28;20136;-83
2022/07/15 07:53:07;;;;;;;7.18;5.57;;;;;;;31.21;31.91;100894.28;4968820;28;20509;-85
2022/07/15 07:55:34;;;;;;;6.20;5.10;;;;;;;31.67;32.13;100972.16;4985235;28;20058;-83
2022/07/15 07:58:01;;;;;;;5.93;4.70;;;;;;;31.72;32.18;100965.84;4985827;28;20050;-83
2022/07/15 08:00:30;;;;;;;7.03;6.30;;;;;;;31.40;32.36;100902.91;4968084;28;20054;-83
2022/07/15 08:02:59;;;;;;;8.38;6.38;;;;;;;31.61;31.99;100929.34;4968564;28;20054;-84
2022/07/15 08:05:27;;;;;;;9.55;5.97;;;;;;;30.75;32.09;100767.97;4971010;28;20054;-83
2022/07/15 08:08:17;;;;;;;11.73;6.53;;;;;;;31.94;32.43;100954.66;4992735;28;20514;-84
2022/07/15 08:10:47;;;;;;;7.28;6.53;;;;;;;31.78;32.29;100940.09;4975923;28;20464;-83
2022/07/15 08:13:16;;;;;;;12.85;6.30;;;;;;;31.89;33.00;100954.66;4968404;28;20434;-84
2022/07/15 08:15:43;;;;;;;9.25;6.35;;;;;;;31.37;31.99;100835.66;4986056;28;20333;-84
2022/07/15 08:18:10;;;;;;;6.55;5.80;;;;;;;32.13;32.71;100966.81;4968079;28;20062;-83
2022/07/15 08:20:38;;;;;;;8.82;6.78;;;;;;;31.94;33.52;100929.97;4967632;28;20088;-82
2022/07/15 08:23:05;;;;;;;9.88;6.25;;;;;;;31.76;32.81;100894.81;4950951;28;20050;-83
2022/07/15 08:25:39;;;;;;;6.95;6.25;;;;;;;32.18;33.00;100929.50;4958989;28;20043;-81
2022/07/15 08:28:08;;;;;;;11.77;6.43;;;;;;;31.98;32.52;100880.88;4949766;28;20353;-81
2022/07/15 08:30:35;;;;;;;9.45;6.70;;;;;;;31.47;32.34;100815.69;4945280;29;20090;-80
2022/07/15 08:33:03;;;;;;;12.77;6.70;;;;;;;32.29;32.39;100951.19;4930844;29;20487;-82
2022/07/15 08:35:30;;;;;;;11.50;6.97;;;;;;;32.26;32.56;100934.44;4964913;28;20054;-83
2022/07/15 08:37:58;;;;;;;7.60;6.97;;;;;;;32.36;33.26;100937.19;4950260;28;20516;-81
2022/07/15 08:40:26;;;;;;;7.43;6.85;;;;;;;32.45;32.66;100938.28;4952839;28;20050;-82
2022/07/15 08:42:52;;;;;;;7.50;6.57;;;;;;;31.80;32.57;100816.28;4966838;28;20046;-82
2022/07/15 08:45:19;;;;;;;8.75;6.50;;;;;;;32.50;31.64;100915.50;4949641;28;20406;-82
2022/07/15 08:47:47;;;;;;;10.60;7.70;;;;;;;32.85;32.24;100942.16;4950281;28;20062;-82
2022/07/15 08:50:22;;;;;;;9.35;7.00;;;;;;;32.73;32.07;100919.63;4968070;28;20109;-82
2022/07/15 08:52:53;;;;;;;14.05;7.18;;;;;;;32.91;32.24;100951.19;4954460;28;20049;-81
2022/07/15 08:55:20;;;;;;;12.68;7.35;;;;;;;32.88;32.42;100925.09;4969414;28;20113;-81
2022/07/15 08:57:49;;;;;;;8.43;7.60;;;;;;;33.16;32.12;100940.19;4969730;28;20051;-81
2022/07/15 09:00:17;;;;;;;11.33;8.40;;;;;;;33.19;32.09;100941.56;4987155;28;20077;-80
2022/07/15 09:02:45;;;;;;;9.93;7.85;;;;;;;33.06;32.24;100918.22;4969418;28;20138;-82
2022/07/15 09:05:22;;;;;;;10.93;7.78;;;;;;;33.17;31.92;100941.00;4970719;28;20054;-81
2022/07/15 09:07:53;;;;;;;8.40;7.18;;;;;;;33.10;32.21;100912.97;4950479;28;20485;-82
2022/07/15 09:10:24;;;;;;;14.00;8.90;;;;;;;33.35;31.72;100936.81;4966423;28;20222;-81
2022/07/15 09:12:53;;;;;;;8.25;7.47;;;;;;;33.41;32.13;100939.25;4963626;28;20057;-82
2022/07/15 09:15:31;;;;;;;10.82;7.97;;;;;;;33.19;32.22;100889.28;4950344;28;20058;-81
2022/07/15 09:18:06;;;;;;;7.75;7.05;;;;;;;33.42;31.72;100938.19;4950913;28;20057;-81
2022/07/15 09:20:33;;;;;;;10.25;7.95;;;;;;;33.34;31.65;100916.72;4950012;28;20058;-82
2022/07/15 09:23:01;;;;;;;9.02;7.30;;;;;;;33.43;31.44;100939.00;4951163;28;20078;-83
2022/07/15 09:25:28;;;;;;;9.40;7.00;;;;;;;33.42;31.63;100935.44;4970805;28;20097;-80
2022/07/15 09:27:57;;;;;;;17.17;7.20;;;;;;;33.40;31.65;100934.88;4953126;28;20583;-84
2022/07/15 09:36:18;;;;;;;10.90;8.40;;;;;;;33.92;31.05;100940.16;4970765;28;20070;-82
2022/07/15 09:38:47;;;;;;;8.15;7.40;;;;;;;33.91;31.33;100932.97;4954467;28;20050;-82
2022/07/15 09:41:35;;;;;;;9.43;7.82;;;;;;;33.75;31.08;100907.50;4990158;28;20043;-83
2022/07/15 09:44:06;;;;;;;14.07;8.00;;;;;;;33.95;30.87;100918.34;4972862;28;20145;-82
2022/07/15 09:46:43;;;;;;;7.95;7.25;;;;;;;34.05;31.75;100922.97;4972461;28;20457;-82
2022/07/15 09:49:11;;;;;;;10.43;9.02;;;;;;;34.34;30.43;100913.97;4971830;28;20053;-82
2022/07/15 09:51:46;;;;;;;9.73;8.63;;;;;;;34.45;30.61;100915.53;4948731;28;20071;-83
2022/07/15 09:54:14;;;;;;;13.10;8.52;;;;;;;34.10;31.07;100842.28;4949613;28;20566;-82
2022/07/15 09:56:44;;;;;;;14.48;10.88;;;;;;;34.72;30.26;100911.47;4932905;28;20142;-82
2022/07/15 09:59:11;;;;;;;10.52;8.13;;;;;;;34.85;30.30;100899.72;4932875;28;20350;-81
2022/07/15 10:01:39;;;;;;;10.40;8.48;;;;;;;34.82;29.39;100881.84;4930889;29;20574;-83
2022/07/15 10:04:07;;;;;;;10.25;7.18;;;;;;;35.14;30.18;100916.25;4927351;29;20102;-83
2022/07/15 10:06:35;;;;;;;8.73;7.15;;;;;;;34.72;29.39;100823.25;4928717;29;20052;-83
2022/07/15 10:09:03;;;;;;;13.23;8.02;;;;;;;35.52;28.78;100908.88;4932381;29;20055;-82
2022/07/15 10:11:32;;;;;;;11.75;8.10;;;;;;;35.48;28.81;100894.03;4930327;29;20055;-82
2022/07/15 10:14:30;;;;;;;11.90;7.15;;;;;;;35.24;28.85;100855.44;4929316;29;20307;-84
2022/07/15 10:17:28;;;;;;;12.00;7.45;;;;;;;35.46;29.23;100896.25;4928704;29;20078;-84
2022/07/15 10:20:00;;;;;;;8.30;7.60;;;;;;;35.61;29.10;100902.72;4928996;29;20468;-83
2022/07/15 10:23:16;;;;;;;9.02;7.05;;;;;;;35.76;28.56;100898.91;4928642;29;20048;-84
2022/07/15 10:25:42;;;;;;;8.90;8.02;;;;;;;35.87;28.29;100900.41;4925565;29;20408;-84
2022/07/15 10:28:22;;;;;;;9.27;7.03;;;;;;;35.89;28.22;100893.47;4928764;29;20097;-83
2022/07/15 10:31:17;;;;;;;9.85;7.25;;;;;;;35.84;28.50;100868.69;4928835;29;20298;-83
2022/07/15 10:34:03;;;;;;;11.00;8.10;;;;;;;36.37;27.81;100884.16;4929571;29;20091;-85
2022/07/15 10:36:39;;;;;;;8.23;7.25;;;;;;;36.45;27.29;100883.47;4928877;29;20047;-83
2022/07/15 10:39:08;;;;;;;8.50;7.85;;;;;;;36.44;28.26;100869.97;4926307;29;20048;-83
2022/07/15 10:41:53;;;;;;;10.80;7.95;;;;;;;36.47;28.04;100844.47;4910894;29;20527;-84
2022/07/15 10:44:20;;;;;;;10.90;6.93;;;;;;;36.84;27.90;100875.88;4914164;29;20060;-84
2022/07/15 10:46:48;;;;;;;8.52;7.75;;;;;;;36.88;27.27;100863.06;4925987;29;20143;-83
2022/07/15 10:49:15;;;;;;;7.18;6.53;;;;;;;37.20;27.35;100865.72;4927323;29;20059;-82
2022/07/15 10:51:44;;;;;;;9.05;7.40;;;;;;;37.26;27.28;100840.69;4912434;29;20257;-83
2022/07/15 10:54:41;;;;;;;11.30;7.38;;;;;;;37.67;26.10;100856.41;4943594;29;20535;-83
2022/07/15 10:57:09;;;;;;;9.55;7.20;;;;;;;37.99;25.73;100855.38;4949388;29;20495;-83
2022/07/15 10:59:47;;;;;;;8.55;7.78;;;;;;;37.43;25.54;100757.81;4948767;29;20258;-83
2022/07/15 11:02:20;;;;;;;12.50;7.18;;;;;;;37.64;25.92;100775.59;4951223;28;20097;-84
2022/07/15 11:04:48;;;;;;;;;;;;;;;37.98;25.57;100840.69;4989459;28;20066;-83
2022/07/15 11:07:14;;;;;;;8.10;7.28;;;;;;;38.02;25.92;100849.25;4989421;28;19929;-83
2022/07/15 11:09:51;;;;;;;7.28;6.55;;;;;;;37.96;24.80;100848.50;4971041;28;20053;-83
2022/07/15 11:12:32;;;;;;;8.13;6.60;;;;;;;38.15;25.37;100833.66;4971033;28;20050;-83
2022/07/15 11:15:12;;;;;;;8.30;6.68;;;;;;;38.45;24.71;100832.88;4971134;28;20046;-83
2022/07/15 11:17:42;;;;;;;10.18;6.93;;;;;;;38.62;25.39;100831.31;4988238;28;20042;-82
2022/07/15 11:20:12;;;;;;;9.02;7.63;;;;;;;38.77;24.91;100825.34;4970852;28;20494;-82
2022/07/15 11:22:42;;;;;;;10.18;7.05;;;;;;;39.04;24.31;100827.06;4970210;28;20166;-82
2022/07/15 11:25:35;;;;;;;7.57;6.88;;;;;;;39.11;23.99;100827.41;4970860;28;20509;-84
2022/07/15 11:28:09;;;;;;;10.68;6.30;;;;;;;39.22;23.92;100810.44;4970918;28;20214;-84
2022/07/15 11:30:37;;;;;;;6.88;6.28;;;;;;;39.23;23.78;100799.03;4987546;28;20046;-84
2022/07/15 11:33:09;;;;;;;7.88;6.43;;;;;;;39.31;23.90;100814.84;4987609;28;20061;-84
2022/07/15 11:35:45;;;;;;;10.48;8.45;;;;;;;39.41;24.01;100815.72;4970062;28;20046;-84
2022/07/15 11:38:13;;;;;;;7.50;6.65;;;;;;;39.53;24.15;100802.00;4970298;28;20061;-84
2022/07/15 11:46:22;;;;;;;8.77;6.78;;;;;;;40.08;23.63;100792.13;4965968;28;20552;-84
2022/07/15 11:48:49;;;;;;;8.48;7.32;;;;;;;40.07;23.43;100791.28;4949760;28;20058;-83